Time;durP1;ratioP1;P1;durP2;ratioP2;P2;SDS_P1;SDS_P2;PMS_P1;PMS_P2;Temp;Humidity;BMP_temperature;BMP_pressure;BME280_temperature;BME280_humidity;BME280_pressure;Samples;Min_cycle;Max_cycle;Signal;HPM_P1;HPM_P2
2022/06/09 00:00:17;;;;;;;32.50;9.32;;;14.80;99.90;;;;;;4964165;28;208718;-73
2022/06/09 00:02:49;;;;;;;33.00;9.60;;;14.80;99.90;;;;;;5017662;28;20499;-73
2022/06/09 00:05:15;;;;;;;32.95;9.57;;;14.70;99.90;;;;;;4938585;28;229321;-73
2022/06/09 00:07:43;;;;;;;40.33;10.70;;;14.70;99.90;;;;;;5019402;28;20044;-73
2022/06/09 00:10:17;;;;;;;32.42;9.32;;;14.70;99.90;;;;;;4947196;28;212473;-73
2022/06/09 00:12:44;;;;;;;32.28;10.07;;;14.70;99.90;;;;;;4993214;28;20413;-73
2022/06/09 00:15:13;;;;;;;33.38;9.50;;;14.60;99.90;;;;;;4956757;28;235709;-72
2022/06/09 00:17:40;;;;;;;36.60;10.18;;;14.60;99.90;;;;;;5000982;28;20049;-74
2022/06/09 00:20:08;;;;;;;31.80;10.35;;;14.60;99.90;;;;;;4959168;28;274646;-74
2022/06/09 00:22:34;;;;;;;35.97;11.10;;;14.60;99.90;;;;;;5032894;28;20040;-73
2022/06/09 00:25:00;;;;;;;37.50;10.55;;;14.60;99.90;;;;;;4954253;28;209791;-73
2022/06/09 00:27:27;;;;;;;43.42;11.13;;;14.60;99.90;;;;;;5024480;28;20431;-74
2022/06/09 00:29:53;;;;;;;40.90;10.68;;;14.60;99.90;;;;;;4931368;28;217991;-73
2022/06/09 00:32:19;;;;;;;37.88;10.93;;;14.60;99.90;;;;;;5001042;28;20549;-74
2022/06/09 00:34:45;;;;;;;35.45;9.90;;;14.60;99.90;;;;;;4957163;28;212248;-74
2022/06/09 00:37:11;;;;;;;33.40;9.98;;;14.60;99.90;;;;;;5012759;28;20132;-73
2022/06/09 00:39:37;;;;;;;32.88;10.13;;;14.60;99.90;;;;;;4964184;28;206574;-73
2022/06/09 00:42:05;;;;;;;30.73;9.48;;;14.60;99.90;;;;;;5019719;28;20065;-73
2022/06/09 00:44:32;;;;;;;35.80;10.45;;;14.60;99.90;;;;;;4948806;28;211086;-73
2022/06/09 00:47:26;;;;;;;34.88;10.02;;;14.60;99.90;;;;;;5017855;28;20065;-73
2022/06/09 00:50:04;;;;;;;33.33;9.80;;;14.50;99.90;;;;;;4921708;28;206698;-74
2022/06/09 00:52:36;;;;;;;41.13;10.25;;;14.50;99.90;;;;;;4960107;28;20058;-73
2022/06/09 00:55:10;;;;;;;37.50;9.60;;;14.50;99.90;;;;;;4907267;28;203086;-73
2022/06/09 00:57:50;;;;;;;33.80;9.60;;;14.50;99.90;;;;;;4966392;28;20046;-73
2022/06/09 01:00:21;;;;;;;34.47;9.02;;;14.50;99.90;;;;;;4899995;28;207155;-73
2022/06/09 01:02:49;;;;;;;33.83;10.55;;;14.50;99.90;;;;;;4960297;28;20085;-72
2022/06/09 01:05:20;;;;;;;33.83;9.00;;;14.50;99.90;;;;;;4882190;28;212197;-73
2022/06/09 01:07:54;;;;;;;33.40;8.82;;;14.50;99.90;;;;;;4970741;28;20074;-73
2022/06/09 01:10:21;;;;;;;35.25;9.18;;;14.50;99.90;;;;;;4950979;28;210618;-73
2022/06/09 01:12:48;;;;;;;31.50;8.50;;;14.40;99.90;;;;;;4994686;28;20050;-73
2022/06/09 01:15:18;;;;;;;29.48;9.15;;;14.40;99.90;;;;;;4917280;28;176080;-73
2022/06/09 01:18:27;;;;;;;32.05;9.50;;;14.40;99.90;;;;;;4965572;28;20053;-73
2022/06/09 01:21:16;;;;;;;38.47;9.43;;;14.40;99.90;;;;;;4844895;29;224096;-73
2022/06/09 01:24:12;;;;;;;34.78;9.60;;;14.40;99.90;;;;;;4841080;28;211738;-73
2022/06/09 01:26:44;;;;;;;41.78;10.10;;;14.40;99.90;;;;;;4879382;29;20046;-73
2022/06/09 01:29:37;;;;;;;31.77;9.98;;;14.40;99.90;;;;;;4869679;28;206230;-74
2022/06/09 01:32:20;;;;;;;30.77;8.98;;;14.30;99.90;;;;;;4879588;29;20060;-74
2022/06/09 01:35:14;;;;;;;36.90;10.63;;;14.30;99.90;;;;;;4827131;29;205948;-74
2022/06/09 01:37:46;;;;;;;33.10;9.85;;;14.30;99.90;;;;;;4868426;29;20056;-73
2022/06/09 01:40:16;;;;;;;38.70;10.77;;;14.30;99.90;;;;;;4839258;29;205721;-73
2022/06/09 01:42:45;;;;;;;40.17;10.40;;;14.20;99.90;;;;;;4890055;29;20497;-74
2022/06/09 01:45:13;;;;;;;35.45;10.13;;;14.20;99.90;;;;;;4843895;29;210285;-74
2022/06/09 01:48:17;;;;;;;39.78;10.48;;;14.20;99.90;;;;;;4888170;29;20052;-74
2022/06/09 01:51:04;;;;;;;35.53;10.15;;;14.20;99.90;;;;;;4840558;29;238480;-74
2022/06/09 01:53:36;;;;;;;36.30;10.73;;;14.10;99.90;;;;;;4847523;29;219040;-73
2022/06/09 01:56:08;;;;;;;35.13;9.65;;;14.10;99.90;;;;;;4893898;28;89410;-73
2022/06/09 01:58:41;;;;;;;42.93;10.77;;;14.10;99.90;;;;;;4898735;28;207027;-74
2022/06/09 02:01:10;;;;;;;42.55;10.18;;;14.00;99.90;;;;;;4939775;28;120322;-74
2022/06/09 02:03:41;;;;;;;33.33;10.20;;;14.10;99.90;;;;;;4909144;28;177658;-73
2022/06/09 02:06:09;;;;;;;38.67;11.35;;;14.00;99.90;;;;;;4931321;28;138399;-74
2022/06/09 02:08:36;;;;;;;37.97;10.38;;;14.10;99.90;;;;;;4934163;28;214612;-73
2022/06/09 02:11:11;;;;;;;34.58;10.43;;;14.00;99.90;;;;;;5007190;28;157734;-74
2022/06/09 02:13:42;;;;;;;47.42;11.75;;;14.00;99.90;;;;;;4974428;28;209980;-73
2022/06/09 02:16:12;;;;;;;43.90;11.68;;;14.00;99.90;;;;;;5007074;28;157453;-74
2022/06/09 02:18:41;;;;;;;40.40;10.70;;;14.00;99.90;;;;;;4972007;28;211479;-73
2022/06/09 02:21:17;;;;;;;41.90;10.88;;;14.00;99.90;;;;;;4995334;28;152357;-72
2022/06/09 02:23:43;;;;;;;36.47;10.75;;;14.00;99.90;;;;;;4981457;28;215874;-73
2022/06/09 02:26:09;;;;;;;39.95;10.50;;;14.00;99.90;;;;;;4978693;28;105473;-72
2022/06/09 02:28:35;;;;;;;40.38;10.95;;;14.00;99.90;;;;;;4987357;28;210560;-73
2022/06/09 02:31:02;;;;;;;41.85;10.98;;;14.00;99.90;;;;;;5003597;28;23079;-74
2022/06/09 02:33:29;;;;;;;32.78;10.45;;;14.00;99.90;;;;;;4973234;28;216909;-73
2022/06/09 02:35:55;;;;;;;36.00;10.75;;;13.90;99.90;;;;;;4953492;28;207008;-74
2022/06/09 02:38:22;;;;;;;40.65;10.43;;;13.90;99.90;;;;;;5021194;28;20064;-73
2022/06/09 02:40:49;;;;;;;39.33;10.00;;;13.90;99.90;;;;;;4932705;28;206360;-73
2022/06/09 02:43:15;;;;;;;42.13;11.07;;;13.90;99.90;;;;;;5032246;28;20686;-74
2022/06/09 02:45:42;;;;;;;42.78;10.43;;;13.80;99.90;;;;;;4961861;28;210988;-73
2022/06/09 02:48:08;;;;;;;40.10;10.20;;;13.80;99.90;;;;;;5019628;28;20132;-72
2022/06/09 02:50:36;;;;;;;38.22;9.85;;;13.70;99.90;;;;;;4963562;28;235926;-73
2022/06/09 02:53:02;;;;;;;40.55;10.18;;;13.70;99.90;;;;;;5020346;28;20057;-73
2022/06/09 02:55:29;;;;;;;33.90;9.73;;;13.60;99.90;;;;;;4937179;28;209746;-72
2022/06/09 02:57:55;;;;;;;33.13;10.65;;;13.60;99.90;;;;;;5035844;28;20696;-73
2022/06/09 03:00:22;;;;;;;40.85;10.90;;;13.50;99.90;;;;;;4955800;28;222445;-73
2022/06/09 03:02:55;;;;;;;42.38;10.55;;;13.50;99.90;;;;;;5003889;28;20045;-74
2022/06/09 03:05:21;;;;;;;36.53;10.50;;;13.50;99.90;;;;;;4927756;28;212573;-72
2022/06/09 03:07:48;;;;;;;35.92;10.43;;;13.50;99.90;;;;;;5023136;28;20164;-73
2022/06/09 03:10:15;;;;;;;34.63;10.13;;;13.50;99.90;;;;;;4967585;28;213371;-73
2022/06/09 03:12:41;;;;;;;33.58;9.98;;;13.50;99.90;;;;;;5027640;28;20045;-73
2022/06/09 03:15:10;;;;;;;32.45;10.95;;;13.50;99.90;;;;;;4961130;28;207304;-73
2022/06/09 03:17:37;;;;;;;34.35;10.45;;;13.50;99.90;;;;;;5023214;28;20049;-72
2022/06/09 03:20:05;;;;;;;34.65;9.38;;;13.50;99.90;;;;;;4957105;28;205875;-73
2022/06/09 03:22:32;;;;;;;34.35;10.68;;;13.50;99.90;;;;;;5022832;28;20057;-72
2022/06/09 03:24:59;;;;;;;31.60;10.45;;;13.50;99.90;;;;;;4948965;28;209658;-73
2022/06/09 03:27:27;;;;;;;36.65;10.38;;;13.40;99.90;;;;;;5013106;28;20560;-73
2022/06/09 03:29:53;;;;;;;34.92;9.95;;;13.40;99.90;;;;;;4946839;28;206744;-73
2022/06/09 03:32:19;;;;;;;36.08;9.82;;;13.30;99.90;;;;;;5025303;28;20174;-73
2022/06/09 03:34:45;;;;;;;40.90;10.95;;;13.30;99.90;;;;;;4967334;28;227584;-74
2022/06/09 03:37:11;;;;;;;33.75;9.77;;;13.20;99.90;;;;;;5034543;28;20054;-74
2022/06/09 03:39:38;;;;;;;33.30;10.18;;;13.20;99.90;;;;;;4950512;28;238356;-73
2022/06/09 03:42:05;;;;;;;31.23;10.20;;;13.20;99.90;;;;;;5008542;28;20049;-73
2022/06/09 03:44:31;;;;;;;38.13;10.60;;;13.10;99.90;;;;;;4972740;28;218922;-73
2022/06/09 03:46:57;;;;;;;33.30;10.38;;;13.10;99.90;;;;;;5009591;28;20426;-74
2022/06/09 03:49:23;;;;;;;32.47;9.35;;;13.20;99.90;;;;;;4958665;28;205807;-73
2022/06/09 03:51:49;;;;;;;34.25;10.38;;;13.10;99.90;;;;;;5029424;28;20037;-73
2022/06/09 03:54:15;;;;;;;35.28;10.40;;;13.20;99.90;;;;;;4948699;28;206278;-73
2022/06/09 03:56:42;;;;;;;24.13;9.18;;;13.20;99.90;;;;;;5023950;28;20379;-73
2022/06/09 03:59:10;;;;;;;26.67;9.13;;;13.20;99.90;;;;;;4948753;28;206539;-73
2022/06/09 04:01:37;;;;;;;31.00;10.00;;;13.20;99.90;;;;;;5023900;28;20061;-73
2022/06/09 04:04:03;;;;;;;28.13;9.50;;;13.20;99.90;;;;;;4973864;28;213137;-74
2022/06/09 04:06:30;;;;;;;21.35;9.13;;;13.30;99.90;;;;;;4990675;28;111484;-74
2022/06/09 04:08:57;;;;;;;27.70;9.23;;;13.30;99.90;;;;;;4984525;28;210670;-74
2022/06/09 04:11:23;;;;;;;32.45;9.57;;;13.30;99.90;;;;;;5024133;28;149661;-73
2022/06/09 04:13:50;;;;;;;31.10;8.85;;;13.40;99.90;;;;;;4986007;28;229729;-73
2022/06/09 04:16:38;;;;;;;29.02;9.15;;;13.40;99.90;;;;;;5011590;28;138940;-72
2022/06/09 04:19:10;;;;;;;24.02;8.75;;;13.40;99.90;;;;;;4963542;28;229288;-73
2022/06/09 04:21:37;;;;;;;26.17;9.02;;;13.40;99.90;;;;;;5009076;28;20048;-73
2022/06/09 04:24:04;;;;;;;24.42;8.77;;;13.40;99.90;;;;;;4972420;28;209384;-72
2022/06/09 04:26:32;;;;;;;27.85;8.13;;;13.40;99.90;;;;;;5021930;28;20060;-73
2022/06/09 04:28:59;;;;;;;25.35;8.32;;;13.40;99.90;;;;;;4986787;28;245680;-74
2022/06/09 04:31:26;;;;;;;29.17;8.15;;;13.40;99.90;;;;;;5012582;28;129602;-73
2022/06/09 04:33:52;;;;;;;23.40;7.88;;;13.40;99.90;;;;;;4978746;28;218318;-73
2022/06/09 04:36:19;;;;;;;23.70;8.10;;;13.40;99.90;;;;;;4981966;28;185495;-73
2022/06/09 04:38:46;;;;;;;24.45;8.40;;;13.40;99.90;;;;;;4977149;28;228903;-73
2022/06/09 04:41:14;;;;;;;29.83;8.00;;;13.50;99.90;;;;;;5026220;28;86947;-73
2022/06/09 04:43:42;;;;;;;22.83;7.95;;;13.50;99.90;;;;;;4971375;28;209207;-73
2022/06/09 04:46:11;;;;;;;25.70;8.30;;;13.50;99.90;;;;;;4987974;28;202561;-73
2022/06/09 04:48:37;;;;;;;27.93;8.33;;;13.50;99.90;;;;;;4972831;28;215531;-73
2022/06/09 04:51:12;;;;;;;23.80;9.95;;;13.60;99.90;;;;;;4974404;28;238325;-74
2022/06/09 04:53:39;;;;;;;24.13;11.30;;;13.60;99.90;;;;;;4961436;28;212777;-73
2022/06/09 04:56:06;;;;;;;23.45;13.13;;;13.60;99.90;;;;;;4997193;28;161578;-73
2022/06/09 04:58:33;;;;;;;31.08;15.43;;;13.60;99.90;;;;;;4980379;28;214077;-73
2022/06/09 05:00:59;;;;;;;25.90;15.43;;;13.60;99.90;;;;;;4998875;28;20037;-73
2022/06/09 05:03:25;;;;;;;30.65;16.85;;;13.70;99.90;;;;;;5013234;28;210651;-73
2022/06/09 05:05:52;;;;;;;32.75;18.00;;;13.70;99.90;;;;;;4954157;28;149641;-72
2022/06/09 05:08:18;;;;;;;33.42;19.40;;;13.70;99.90;;;;;;5022217;28;20053;-73
2022/06/09 05:10:46;;;;;;;35.85;20.15;;;13.70;99.90;;;;;;4977446;28;212546;-73
2022/06/09 05:13:15;;;;;;;31.17;19.38;;;13.70;99.90;;;;;;5024684;28;20045;-73
2022/06/09 05:15:59;;;;;;;33.40;20.80;;;13.70;99.90;;;;;;4963539;28;213407;-73
2022/06/09 05:18:28;;;;;;;40.38;22.60;;;13.70;99.90;;;;;;5009151;28;212619;-73
2022/06/09 05:20:59;;;;;;;37.03;23.33;;;13.70;99.90;;;;;;4982550;28;151598;-72
2022/06/09 05:23:27;;;;;;;42.65;24.33;;;13.80;99.90;;;;;;5010743;28;214998;-72
2022/06/09 05:25:55;;;;;;;38.22;23.02;;;13.70;99.90;;;;;;4964746;28;229789;-73
2022/06/09 05:28:24;;;;;;;40.17;24.05;;;13.80;99.90;;;;;;5017983;28;20072;-72
2022/06/09 05:30:50;;;;;;;35.55;23.38;;;13.80;99.90;;;;;;4927620;28;205606;-73
2022/06/09 05:33:17;;;;;;;42.42;24.02;;;13.90;99.90;;;;;;5031687;28;20049;-73
2022/06/09 05:35:43;;;;;;;38.85;23.45;;;13.80;99.90;;;;;;4961520;28;206927;-72
2022/06/09 05:46:30;;;;;;;37.85;22.42;;;13.90;99.90;;;;;;4987832;28;20053;-73
2022/06/09 05:48:56;;;;;;;32.30;22.15;;;14.00;99.90;;;;;;4964934;28;205725;-73
2022/06/09 05:51:22;;;;;;;32.47;22.88;;;14.00;99.90;;;;;;4999665;28;185642;-73
2022/06/09 05:53:48;;;;;;;38.67;21.80;;;14.00;99.90;;;;;;4975599;28;211029;-73
2022/06/09 05:56:16;;;;;;;34.67;23.27;;;14.10;99.90;;;;;;4990385;28;112779;-72
2022/06/09 05:58:42;;;;;;;39.10;23.30;;;14.10;99.90;;;;;;4979979;28;209625;-71
2022/06/09 06:01:10;;;;;;;43.10;23.48;;;14.10;99.90;;;;;;5002376;28;43454;-71
2022/06/09 06:03:38;;;;;;;37.15;23.42;;;14.20;99.90;;;;;;4976155;28;212580;-71
2022/06/09 06:08:49;;;;;;;39.88;24.35;;;14.20;99.90;;;;;;4986676;28;148554;-70
2022/06/09 06:11:16;;;;;;;37.65;23.35;;;14.20;99.90;;;;;;5001338;28;20045;-70
2022/06/09 06:13:43;;;;;;;38.03;23.02;;;14.20;99.90;;;;;;4985514;28;211441;-70
2022/06/09 06:16:10;;;;;;;39.03;23.13;;;14.30;99.90;;;;;;5018048;28;57232;-71
2022/06/09 06:18:37;;;;;;;37.30;22.70;;;14.30;99.90;;;;;;4975147;28;226028;-71
2022/06/09 06:21:03;;;;;;;32.78;22.95;;;14.40;99.90;;;;;;5019258;28;44603;-71
2022/06/09 06:23:30;;;;;;;33.88;22.40;;;14.50;99.90;;;;;;4988474;28;212736;-70
2022/06/09 06:25:57;;;;;;;31.83;20.38;;;14.60;99.90;;;;;;4995624;28;89905;-71
2022/06/09 06:28:24;;;;;;;25.85;19.45;;;14.70;99.90;;;;;;5026544;28;20096;-70
2022/06/09 06:30:50;;;;;;;30.23;19.30;;;14.80;99.90;;;;;;4955906;28;242257;-70
2022/06/09 06:33:17;;;;;;;27.58;19.27;;;15.00;99.90;;;;;;5022621;28;20053;-71
2022/06/09 06:35:43;;;;;;;21.45;16.98;;;15.00;99.90;;;;;;4971647;28;106788;-70
2022/06/09 06:38:09;;;;;;;24.08;17.55;;;15.10;99.90;;;;;;5022520;28;20061;-70
2022/06/09 06:40:36;;;;;;;25.50;16.92;;;15.20;99.90;;;;;;4968211;28;214914;-71
2022/06/09 06:43:02;;;;;;;21.95;15.82;;;15.30;99.90;;;;;;5034779;28;20049;-71
2022/06/09 06:45:28;;;;;;;21.70;15.85;;;15.50;99.90;;;;;;4974846;28;207946;-71
2022/06/09 06:47:56;;;;;;;20.77;15.43;;;15.60;99.90;;;;;;5029016;28;20045;-71
2022/06/09 06:50:23;;;;;;;19.55;14.85;;;15.90;99.90;;;;;;4955926;28;221295;-71
2022/06/09 06:52:49;;;;;;;19.88;14.02;;;16.00;99.90;;;;;;5025520;28;20394;-71
2022/06/09 06:55:18;;;;;;;19.02;12.77;;;16.30;99.90;;;;;;4968793;28;206395;-72
2022/06/09 06:57:45;;;;;;;18.00;12.10;;;16.40;99.90;;;;;;5023788;28;20451;-72
2022/06/09 07:00:15;;;;;;;15.95;11.82;;;16.40;99.90;;;;;;4972611;28;218611;-72
2022/06/09 07:02:41;;;;;;;16.83;12.30;;;16.40;99.90;;;;;;5028465;28;20052;-71
2022/06/09 07:05:08;;;;;;;16.90;10.25;;;16.70;99.90;;;;;;4961025;28;211891;-71
2022/06/09 07:07:35;;;;;;;16.55;10.80;;;16.70;99.90;;;;;;5035029;28;20056;-71
2022/06/09 07:10:04;;;;;;;14.98;9.98;;;16.70;99.90;;;;;;4956787;28;214121;-72
2022/06/09 07:12:30;;;;;;;15.05;9.57;;;17.00;99.90;;;;;;5011300;28;20057;-71
2022/06/09 07:14:57;;;;;;;13.88;8.07;;;17.40;99.90;;;;;;4971848;28;211086;-72
2022/06/09 07:17:24;;;;;;;13.10;7.60;;;17.70;99.90;;;;;;5029521;28;20049;-72
2022/06/09 07:19:50;;;;;;;13.82;7.63;;;17.90;99.90;;;;;;4972066;28;206612;-71
2022/06/09 07:22:16;;;;;;;12.45;6.93;;;18.10;99.90;;;;;;5028921;28;20110;-72
2022/06/09 07:24:43;;;;;;;11.65;6.80;;;17.90;99.90;;;;;;4968375;28;212298;-72
2022/06/09 07:27:09;;;;;;;11.95;6.50;;;17.80;99.90;;;;;;5018821;28;20046;-72
2022/06/09 07:29:35;;;;;;;12.02;5.93;;;17.90;99.90;;;;;;4956315;28;212328;-72
2022/06/09 07:32:02;;;;;;;12.40;5.97;;;18.00;99.90;;;;;;5032824;28;20419;-71
2022/06/09 07:34:28;;;;;;;10.73;5.13;;;18.10;99.90;;;;;;4968719;28;209753;-72
2022/06/09 07:36:54;;;;;;;11.23;5.35;;;18.30;99.90;;;;;;5024187;28;20395;-71
2022/06/09 07:39:20;;;;;;;9.93;4.45;;;18.40;99.90;;;;;;4961920;28;210237;-70
2022/06/09 07:41:46;;;;;;;10.55;4.65;;;18.50;99.90;;;;;;5011957;28;20049;-69
2022/06/09 07:44:13;;;;;;;10.03;4.30;;;18.50;99.90;;;;;;4963821;28;219372;-69
2022/06/09 07:46:39;;;;;;;10.57;3.92;;;18.70;99.90;;;;;;5013712;28;20048;-68
2022/06/09 07:49:07;;;;;;;11.23;3.30;;;18.80;99.90;;;;;;4971891;28;208557;-68
2022/06/09 07:51:34;;;;;;;11.13;3.00;;;18.60;99.90;;;;;;5015890;28;20041;-68
2022/06/09 07:54:00;;;;;;;9.57;2.50;;;18.70;99.90;;;;;;4997107;28;220654;-69
2022/06/09 07:56:27;;;;;;;9.73;2.80;;;18.80;99.90;;;;;;5027016;28;67502;-69
2022/06/09 07:58:54;;;;;;;8.35;2.45;;;19.00;99.90;;;;;;4986275;28;210337;-69
2022/06/09 08:01:22;;;;;;;11.63;3.05;;;19.00;99.90;;;;;;5018581;28;242767;-68
2022/06/09 08:03:48;;;;;;;9.85;2.80;;;18.90;99.90;;;;;;4984833;28;214796;-69
2022/06/09 08:06:15;;;;;;;9.80;2.60;;;18.90;99.90;;;;;;4986614;28;205646;-69
2022/06/09 08:08:41;;;;;;;8.73;2.42;;;19.20;99.90;;;;;;4974421;28;213397;-69
2022/06/09 08:11:09;;;;;;;9.43;2.13;;;19.40;99.90;;;;;;5004063;28;189776;-69
2022/06/09 08:13:36;;;;;;;10.00;2.00;;;19.70;99.90;;;;;;4978966;28;210290;-67
2022/06/09 08:16:04;;;;;;;8.82;2.03;;;20.00;99.90;;;;;;5005967;28;223321;-69
2022/06/09 08:18:30;;;;;;;8.40;2.00;;;20.20;99.90;;;;;;4999706;28;209488;-71
2022/06/09 08:20:56;;;;;;;10.70;1.80;;;20.20;99.90;;;;;;5016554;28;175159;-70
2022/06/09 08:23:25;;;;;;;8.52;1.60;;;20.00;99.90;;;;;;5024687;28;21166;-69
2022/06/09 08:25:54;;;;;;;8.18;1.70;;;19.70;99.90;;;;;;4969909;28;207677;-68
2022/06/09 08:28:21;;;;;;;8.35;1.75;;;19.90;99.90;;;;;;5021136;28;20073;-68
2022/06/09 08:30:53;;;;;;;10.30;2.10;;;20.00;99.90;;;;;;4964081;28;208157;-67
2022/06/09 08:33:21;;;;;;;8.65;1.90;;;20.30;99.90;;;;;;5027094;28;20054;-70
2022/06/09 08:35:48;;;;;;;9.80;1.65;;;20.30;99.90;;;;;;4950346;28;206366;-69
2022/06/09 08:38:15;;;;;;;10.18;2.08;;;20.60;99.90;;;;;;5023032;28;20041;-67
2022/06/09 08:40:54;;;;;;;10.20;1.92;;;20.40;99.90;;;;;;4962398;28;210861;-68
2022/06/09 08:43:30;;;;;;;8.20;1.55;;;20.40;99.90;;;;;;5023482;28;20892;-69
2022/06/09 08:46:00;;;;;;;7.70;1.30;;;20.50;99.90;;;;;;4964462;28;210934;-70
2022/06/09 08:48:34;;;;;;;8.07;1.60;;;20.70;99.90;;;;;;5005456;28;210470;-70
2022/06/09 08:51:06;;;;;;;8.50;1.50;;;20.80;99.90;;;;;;4965120;28;207104;-67
2022/06/09 08:53:39;;;;;;;7.53;1.25;;;20.80;99.90;;;;;;4970838;28;209705;-68
2022/06/09 08:56:26;;;;;;;8.98;1.40;;;20.90;99.90;;;;;;5003310;28;203407;-68
2022/06/09 08:59:15;;;;;;;9.18;1.50;;;20.90;99.90;;;;;;4974308;28;214115;-69
2022/06/09 09:01:45;;;;;;;7.43;1.23;;;21.20;99.90;;;;;;5029321;28;20056;-69
2022/06/09 09:04:14;;;;;;;9.05;1.33;;;21.00;99.90;;;;;;4956223;28;210118;-68
2022/06/09 09:06:47;;;;;;;9.25;1.30;;;20.70;99.90;;;;;;5012449;28;20510;-66
2022/06/09 09:09:28;;;;;;;8.85;1.40;;;20.80;99.90;;;;;;4971390;28;108683;-69
2022/06/09 09:12:22;;;;;;;8.30;1.50;;;20.80;99.90;;;;;;5035381;28;20045;-67
2022/06/09 09:15:12;;;;;;;10.32;1.52;;;20.50;99.90;;;;;;4960539;28;210028;-67
2022/06/09 09:18:05;;;;;;;8.57;1.50;;;20.70;99.90;;;;;;5019558;28;20050;-68
2022/06/09 09:20:57;;;;;;;7.93;1.40;;;20.90;99.90;;;;;;4920585;28;208775;-68
2022/06/09 09:23:43;;;;;;;9.50;1.50;;;21.20;99.90;;;;;;5023390;28;20065;-69
2022/06/09 09:26:29;;;;;;;8.07;1.60;;;21.10;99.90;;;;;;4918120;28;155642;-69
2022/06/09 09:29:10;;;;;;;8.57;1.60;;;21.00;99.90;;;;;;4981428;28;207442;-68
2022/06/09 09:31:45;;;;;;;11.85;1.73;;;20.80;99.90;;;;;;5026499;28;20065;-68
2022/06/09 09:34:23;;;;;;;8.65;1.50;;;20.70;99.90;;;;;;4967267;28;216781;-68
2022/06/09 09:36:55;;;;;;;10.23;1.45;;;20.50;99.90;;;;;;5016278;28;20068;-68
2022/06/09 09:39:35;;;;;;;9.55;1.42;;;20.10;99.90;;;;;;4959318;28;213600;-70
2022/06/09 09:42:14;;;;;;;10.80;1.73;;;20.50;99.90;;;;;;5026420;28;20075;-69
2022/06/09 09:44:41;;;;;;;8.33;1.53;;;20.90;99.90;;;;;;4969652;28;212856;-69
2022/06/09 09:47:22;;;;;;;7.63;1.27;;;20.90;99.60;;;;;;5024953;28;20115;-68
2022/06/09 09:49:52;;;;;;;8.75;1.30;;;20.50;99.90;;;;;;4939882;28;196045;-68
2022/06/09 09:52:39;;;;;;;10.05;1.52;;;21.10;99.90;;;;;;5005382;28;20053;-68
2022/06/09 09:55:25;;;;;;;8.15;1.45;;;21.40;99.30;;;;;;4957720;28;257915;-68
2022/06/09 09:58:16;;;;;;;8.68;1.65;;;21.60;98.90;;;;;;5032887;28;20056;-68
2022/06/09 10:00:43;;;;;;;8.80;1.40;;;21.90;99.70;;;;;;4975323;28;221256;-70
2022/06/09 10:09:12;;;;;;;11.73;1.65;;;22.00;96.80;;;;;;4972843;28;215311;-69
2022/06/09 10:11:53;;;;;;;8.23;1.30;;;22.00;95.40;;;;;;4983548;28;20057;-70
2022/06/09 10:14:25;;;;;;;;;;;22.10;94.10;;;;;;4968402;28;206633;-70
2022/06/09 10:16:53;;;;;;;8.95;1.77;;;22.10;96.60;;;;;;5034715;28;20888;-72
2022/06/09 10:19:23;;;;;;;10.05;1.55;;;22.40;97.80;;;;;;4961534;28;213004;-72
2022/06/09 10:21:51;;;;;;;8.45;1.60;;;22.60;95.40;;;;;;5010330;28;20105;-71
2022/06/09 10:24:22;;;;;;;9.23;1.50;;;22.70;96.00;;;;;;4958202;28;218125;-72
2022/06/09 10:26:54;;;;;;;6.68;1.20;;;23.10;94.10;;;;;;5004970;28;20045;-71
2022/06/09 10:29:39;;;;;;;7.57;1.20;;;23.20;91.10;;;;;;4955661;28;249816;-72
2022/06/09 10:32:34;;;;;;;8.32;1.48;;;23.10;88.50;;;;;;5014236;28;20052;-71
2022/06/09 10:35:11;;;;;;;8.88;1.55;;;23.30;90.00;;;;;;4957601;28;256834;-72
2022/06/09 10:38:04;;;;;;;9.98;1.50;;;23.30;92.10;;;;;;5017655;28;20124;-72
2022/06/09 10:40:49;;;;;;;9.40;1.50;;;22.70;88.80;;;;;;4976941;28;209735;-72
2022/06/09 10:43:30;;;;;;;9.13;1.48;;;23.10;92.60;;;;;;5023537;28;20081;-73
2022/06/09 10:46:11;;;;;;;9.68;1.70;;;23.40;90.90;;;;;;4929244;28;201651;-71
2022/06/09 10:55:15;;;;;;;6.68;1.25;;;23.10;86.60;;;;;;4968953;28;209818;-71
2022/06/09 10:58:00;;;;;;;9.02;1.70;;;22.90;86.30;;;;;;5025072;28;20080;-71
2022/06/09 11:00:31;;;;;;;7.97;1.25;;;23.10;89.00;;;;;;4923797;28;246881;-71
2022/06/09 11:03:00;;;;;;;7.35;1.27;;;23.20;87.40;;;;;;5025251;28;20061;-70
2022/06/09 11:05:50;;;;;;;8.30;1.40;;;23.40;84.80;;;;;;4952534;28;206246;-71
2022/06/09 11:08:34;;;;;;;8.20;1.20;;;23.60;81.80;;;;;;5025186;28;20076;-70
2022/06/09 11:11:09;;;;;;;8.32;1.30;;;23.70;79.30;;;;;;4960797;28;204521;-71
2022/06/09 11:13:56;;;;;;;7.50;1.25;;;23.20;79.10;;;;;;4988692;28;215588;-71
2022/06/09 11:16:46;;;;;;;7.35;1.20;;;23.40;79.30;;;;;;5017136;28;178084;-71
2022/06/09 11:19:30;;;;;;;8.43;1.40;;;23.60;76.40;;;;;;4969450;28;215226;-70
2022/06/09 11:21:59;;;;;;;7.43;1.00;;;23.90;72.70;;;;;;5035852;28;20068;-72
2022/06/09 11:24:31;;;;;;;7.25;1.17;;;23.40;78.40;;;;;;4969131;28;232886;-71
2022/06/09 11:27:16;;;;;;;6.68;1.17;;;23.60;75.40;;;;;;5035783;28;20052;-70
2022/06/09 11:29:45;;;;;;;7.80;1.30;;;23.50;74.20;;;;;;4954378;28;264149;-71
2022/06/09 11:32:28;;;;;;;7.95;1.20;;;23.50;76.10;;;;;;5027967;28;20061;-71
2022/06/09 11:35:13;;;;;;;8.65;1.30;;;23.60;77.00;;;;;;4960532;28;240563;-72
2022/06/09 11:38:08;;;;;;;9.82;1.52;;;23.60;76.50;;;;;;5030258;28;20049;-71
2022/06/09 11:40:51;;;;;;;8.40;1.20;;;23.90;75.00;;;;;;4966709;28;206296;-73
2022/06/09 11:43:46;;;;;;;6.68;1.10;;;23.40;78.10;;;;;;5024070;28;20049;-71
2022/06/09 11:46:29;;;;;;;9.27;1.65;;;22.30;77.00;;;;;;4954529;28;206810;-71
2022/06/09 11:48:59;;;;;;;11.07;1.65;;;22.60;82.20;;;;;;4971443;28;216236;-71
2022/06/09 11:51:29;;;;;;;8.77;1.50;;;23.10;81.80;;;;;;5012910;28;96949;-71
2022/06/09 11:54:02;;;;;;;7.88;1.20;;;23.60;80.60;;;;;;4977008;28;211654;-70
2022/06/09 11:56:34;;;;;;;10.38;1.60;;;23.20;77.00;;;;;;4997227;28;20056;-70
2022/06/09 11:59:22;;;;;;;11.15;1.60;;;22.80;77.50;;;;;;4977707;28;155915;-70
2022/06/09 12:02:00;;;;;;;7.60;1.25;;;23.20;76.60;;;;;;4999397;28;20045;-70
2022/06/09 12:04:48;;;;;;;9.02;1.40;;;23.70;77.60;;;;;;4955725;28;200936;-69
2022/06/09 12:07:26;;;;;;;10.05;1.50;;;23.90;74.20;;;;;;5020892;28;20050;-70
2022/06/09 12:10:20;;;;;;;7.40;1.23;;;23.40;72.40;;;;;;4954541;28;248929;-70
2022/06/09 12:13:18;;;;;;;9.45;1.45;;;22.80;75.20;;;;;;5019132;28;20045;-70
2022/06/09 12:16:20;;;;;;;11.07;1.88;;;23.10;76.70;;;;;;4961562;28;236457;-69
2022/06/09 12:18:59;;;;;;;8.38;1.55;;;23.10;79.50;;;;;;4969796;28;209961;-70
2022/06/09 12:21:30;;;;;;;8.73;1.20;;;22.60;76.00;;;;;;4994345;28;223911;-70
2022/06/09 12:24:14;;;;;;;;;;;22.60;78.50;;;;;;4978181;28;210015;-69
2022/06/09 12:26:40;;;;;;;8.23;1.50;;;22.80;75.10;;;;;;5001508;28;19926;-70
2022/06/09 12:29:40;;;;;;;11.18;1.70;;;23.10;79.90;;;;;;4967144;28;242762;-70
2022/06/09 12:32:09;;;;;;;9.40;1.30;;;23.30;72.20;;;;;;4992645;28;20399;-70
2022/06/09 12:34:42;;;;;;;8.27;1.60;;;23.30;75.50;;;;;;4949287;28;211560;-69
2022/06/09 12:37:31;;;;;;;6.88;1.27;;;23.10;75.90;;;;;;5021050;28;20045;-69
2022/06/09 12:40:02;;;;;;;7.97;1.42;;;23.00;76.70;;;;;;4978034;28;210489;-71
2022/06/09 12:42:46;;;;;;;9.80;1.40;;;23.10;75.90;;;;;;5018966;28;20113;-70
2022/06/09 12:45:32;;;;;;;7.88;1.38;;;23.50;75.80;;;;;;4944532;28;206196;-69
2022/06/09 12:48:16;;;;;;;8.50;1.60;;;23.50;74.30;;;;;;5017968;28;20049;-70
2022/06/09 12:50:48;;;;;;;9.05;1.70;;;23.80;74.60;;;;;;4977781;28;212556;-70
2022/06/09 12:53:29;;;;;;;8.77;1.45;;;23.40;76.40;;;;;;5037753;28;20056;-70
2022/06/09 12:56:04;;;;;;;7.35;1.38;;;23.00;74.00;;;;;;4948427;28;211472;-70
2022/06/09 12:58:48;;;;;;;7.03;1.20;;;23.10;77.80;;;;;;4989397;28;210955;-69
2022/06/09 13:01:21;;;;;;;11.77;1.65;;;23.00;74.10;;;;;;5021680;28;224477;-70
2022/06/09 13:03:55;;;;;;;10.48;1.75;;;22.70;73.90;;;;;;4979647;28;215278;-70
2022/06/09 13:06:40;;;;;;;9.05;1.83;;;22.40;74.60;;;;;;4988722;28;213778;-70
2022/06/09 13:09:31;;;;;;;10.93;1.77;;;22.60;76.70;;;;;;4957259;28;224444;-69
2022/06/09 13:14:53;;;;;;;8.85;1.50;;;23.10;74.50;;;;;;4964204;28;149496;-69
2022/06/09 13:17:27;;;;;;;9.13;1.45;;;22.80;76.40;;;;;;5000396;28;20072;-69
2022/06/09 13:20:06;;;;;;;7.15;1.60;;;22.60;78.40;;;;;;4930360;28;228942;-69
2022/06/09 13:22:33;;;;;;;9.52;1.70;;;23.00;76.90;;;;;;5009548;28;20045;-69